KCDC/CDC METAR and TAF weather

Enter ICAO airport designator
Station Type Date Time Source
KCDC METAR 2020/02/21 14:53 UTC NOAA

KCDC 211453Z AUTO 20003KT 10SM CLR M07/M10 A3028 RMK AO2 SLP283 T10721100 53002


Station Type Date Time Source
KCDC Decoded METAR 2020/02/21 14:53 UTC NOAA

CEDAR CITY MUN AIRPORT, UT, United States (KCDC) 37-42N 113-06W 1714M
Feb 21, 2020 - 09:53 AM EST / 2020.02.21 1453 UTC
Wind: from the SSW (200 degrees) at 3 MPH (3 KT):0
Visibility: 10 mile(s):0
Sky conditions: clear
Temperature: 19.0 F (-7.2 C)
Dew Point: 14.0 F (-10.0 C)
Relative Humidity: 80%
Pressure (altimeter): 30.28 in. Hg (1025 hPa)
Pressure tendency: 0.01 inches (0.2 hPa) higher than three hours ago
ob: KCDC 211453Z AUTO 20003KT 10SM CLR M07/M10 A3028 RMK AO2 SLP283 T10721100 53002
cycle: 15

Station Type Date Time Source
KCDC TAF 2020/02/21 12:30 UTC NOAA

TAF KCDC 211127Z 2112/2212 VRB05KT P6SM SCT200

Example: see airport list